North Crossroads, Mississippi
Current Conditions -  °F | °C
As of 7:35 PM on Friday 28 Nov 2014 (Local Time) from KCRX Reporting Station
Clear Clear  
Wind Chill: 39°   Ceiling: Unl
Heat Index: 45°   Visibility: NA
Dew Point: 27°   Wind: 10mph
Humidity: 49%   Direction: 170°S
Pressure: 30.18"   Gusts: NA
Location:  34.8106°N, 88.1999°W
Report Text: KCRX 290135Z AUTO 17009KT CLR 07/M03 A3018 RMK AO2
Loading
Personal Weather Stations






























Interactive Weather Map New forecast layout! Learn more

10-Day Weather Forecast

Advertisements
Track Severe Weather on mobile